sensor_id;sensor_type;location;lat;lon;timestamp;temperature;humidity
68098;DHT22;54886;47.036;15.466;2022-10-31T00:00:57;11.03;80.76
68098;DHT22;54886;47.036;15.466;2022-10-31T00:03:23;10.94;80.83
68098;DHT22;54886;47.036;15.466;2022-10-31T00:05:49;10.94;80.85
68098;DHT22;54886;47.036;15.466;2022-10-31T00:08:16;10.94;80.67
68098;DHT22;54886;47.036;15.466;2022-10-31T00:10:42;10.90;80.86
68098;DHT22;54886;47.036;15.466;2022-10-31T00:13:08;10.93;81.03
68098;DHT22;54886;47.036;15.466;2022-10-31T00:15:35;10.89;80.94
68098;DHT22;54886;47.036;15.466;2022-10-31T00:18:01;10.86;80.90
68098;DHT22;54886;47.036;15.466;2022-10-31T00:20:26;10.84;81.08
68098;DHT22;54886;47.036;15.466;2022-10-31T00:22:52;10.81;81.32
68098;DHT22;54886;47.036;15.466;2022-10-31T00:25:17;10.81;81.13
68098;DHT22;54886;47.036;15.466;2022-10-31T00:27:43;10.77;80.98
68098;DHT22;54886;47.036;15.466;2022-10-31T00:30:08;10.76;80.90
68098;DHT22;54886;47.036;15.466;2022-10-31T00:32:34;10.70;80.81
68098;DHT22;54886;47.036;15.466;2022-10-31T00:34:59;10.70;80.85
68098;DHT22;54886;47.036;15.466;2022-10-31T00:37:25;10.68;80.85
68098;DHT22;54886;47.036;15.466;2022-10-31T00:39:50;10.65;81.01
68098;DHT22;54886;47.036;15.466;2022-10-31T00:42:15;10.62;81.12
68098;DHT22;54886;47.036;15.466;2022-10-31T00:44:41;10.59;81.25
68098;DHT22;54886;47.036;15.466;2022-10-31T00:47:06;10.55;81.44
68098;DHT22;54886;47.036;15.466;2022-10-31T00:49:32;10.56;81.63
68098;DHT22;54886;47.036;15.466;2022-10-31T00:51:57;10.52;81.60
68098;DHT22;54886;47.036;15.466;2022-10-31T00:54:22;10.49;81.70
68098;DHT22;54886;47.036;15.466;2022-10-31T00:56:48;10.49;81.92
68098;DHT22;54886;47.036;15.466;2022-10-31T00:59:13;10.46;82.14
68098;DHT22;54886;47.036;15.466;2022-10-31T01:01:38;10.45;82.09
68098;DHT22;54886;47.036;15.466;2022-10-31T01:04:04;10.46;82.22
68098;DHT22;54886;47.036;15.466;2022-10-31T01:06:29;10.42;82.54
68098;DHT22;54886;47.036;15.466;2022-10-31T01:08:55;10.41;82.68
68098;DHT22;54886;47.036;15.466;2022-10-31T01:11:22;10.45;82.71
68098;DHT22;54886;47.036;15.466;2022-10-31T01:13:50;10.41;83.01
68098;DHT22;54886;47.036;15.466;2022-10-31T01:16:18;10.42;82.66
68098;DHT22;54886;47.036;15.466;2022-10-31T01:18:44;10.42;82.52
68098;DHT22;54886;47.036;15.466;2022-10-31T01:21:21;10.41;82.78
68098;DHT22;54886;47.036;15.466;2022-10-31T01:23:47;10.40;82.59
68098;DHT22;54886;47.036;15.466;2022-10-31T01:26:15;10.35;82.63
68098;DHT22;54886;47.036;15.466;2022-10-31T01:28:58;10.37;82.65
68098;DHT22;54886;47.036;15.466;2022-10-31T01:31:26;10.30;82.85
68098;DHT22;54886;47.036;15.466;2022-10-31T01:33:52;10.32;82.42
68098;DHT22;54886;47.036;15.466;2022-10-31T01:36:22;10.31;82.18
68098;DHT22;54886;47.036;15.466;2022-10-31T01:38:49;10.28;82.34
68098;DHT22;54886;47.036;15.466;2022-10-31T01:41:17;10.28;82.07
68098;DHT22;54886;47.036;15.466;2022-10-31T01:46:08;10.25;82.29
68098;DHT22;54886;47.036;15.466;2022-10-31T01:48:34;10.24;82.00
68098;DHT22;54886;47.036;15.466;2022-10-31T01:51:00;10.21;82.39
68098;DHT22;54886;47.036;15.466;2022-10-31T01:53:25;10.21;82.21
68098;DHT22;54886;47.036;15.466;2022-10-31T01:55:51;10.15;82.29
68098;DHT22;54886;47.036;15.466;2022-10-31T01:58:21;10.15;82.39
68098;DHT22;54886;47.036;15.466;2022-10-31T02:00:51;10.10;82.14
68098;DHT22;54886;47.036;15.466;2022-10-31T02:03:18;10.07;82.16
68098;DHT22;54886;47.036;15.466;2022-10-31T02:05:45;10.06;82.10
68098;DHT22;54886;47.036;15.466;2022-10-31T02:10:46;10.06;81.71
68098;DHT22;54886;47.036;15.466;2022-10-31T02:13:12;10.06;81.76
68098;DHT22;54886;47.036;15.466;2022-10-31T02:15:39;10.06;81.62
68098;DHT22;54886;47.036;15.466;2022-10-31T02:18:05;10.03;81.91
68098;DHT22;54886;47.036;15.466;2022-10-31T02:20:42;10.01;81.89
68098;DHT22;54886;47.036;15.466;2022-10-31T02:26:37;9.96;81.93
68098;DHT22;54886;47.036;15.466;2022-10-31T02:32:16;9.94;81.87
68098;DHT22;54886;47.036;15.466;2022-10-31T02:34:48;9.91;82.50
68098;DHT22;54886;47.036;15.466;2022-10-31T02:40:17;9.90;82.34
68098;DHT22;54886;47.036;15.466;2022-10-31T02:43:06;9.87;82.51
68098;DHT22;54886;47.036;15.466;2022-10-31T02:46:24;9.87;82.62
68098;DHT22;54886;47.036;15.466;2022-10-31T02:48:28;9.85;82.42
68098;DHT22;54886;47.036;15.466;2022-10-31T02:50:59;9.83;82.79
68098;DHT22;54886;47.036;15.466;2022-10-31T02:53:26;9.82;82.82
68098;DHT22;54886;47.036;15.466;2022-10-31T02:56:02;9.79;82.47
68098;DHT22;54886;47.036;15.466;2022-10-31T02:58:31;9.77;82.63
68098;DHT22;54886;47.036;15.466;2022-10-31T03:06:36;9.70;82.01
68098;DHT22;54886;47.036;15.466;2022-10-31T03:14:29;9.63;82.32
68098;DHT22;54886;47.036;15.466;2022-10-31T03:16:59;9.62;82.15
68098;DHT22;54886;47.036;15.466;2022-10-31T03:19:30;9.59;82.54
68098;DHT22;54886;47.036;15.466;2022-10-31T03:22:16;9.58;82.08
68098;DHT22;54886;47.036;15.466;2022-10-31T03:24:43;9.58;82.18
68098;DHT22;54886;47.036;15.466;2022-10-31T03:27:12;9.53;82.40
68098;DHT22;54886;47.036;15.466;2022-10-31T03:29:42;9.55;82.43
68098;DHT22;54886;47.036;15.466;2022-10-31T03:32:14;9.55;82.65
68098;DHT22;54886;47.036;15.466;2022-10-31T03:34:43;9.52;82.81
68098;DHT22;54886;47.036;15.466;2022-10-31T03:37:13;9.52;82.73
68098;DHT22;54886;47.036;15.466;2022-10-31T03:39:41;9.49;83.39
68098;DHT22;54886;47.036;15.466;2022-10-31T03:42:14;9.49;83.19
68098;DHT22;54886;47.036;15.466;2022-10-31T03:44:45;9.46;83.27
68098;DHT22;54886;47.036;15.466;2022-10-31T03:47:12;9.46;83.07
68098;DHT22;54886;47.036;15.466;2022-10-31T03:49:38;9.43;84.49
68098;DHT22;54886;47.036;15.466;2022-10-31T03:54:59;9.45;83.39
68098;DHT22;54886;47.036;15.466;2022-10-31T03:57:51;9.43;83.30
68098;DHT22;54886;47.036;15.466;2022-10-31T04:00:15;9.39;84.01
68098;DHT22;54886;47.036;15.466;2022-10-31T04:02:47;9.45;83.61
68098;DHT22;54886;47.036;15.466;2022-10-31T04:05:15;9.41;83.65
68098;DHT22;54886;47.036;15.466;2022-10-31T04:07:45;9.39;83.83
68098;DHT22;54886;47.036;15.466;2022-10-31T04:10:13;9.39;83.92
68098;DHT22;54886;47.036;15.466;2022-10-31T04:12:40;9.38;83.53
68098;DHT22;54886;47.036;15.466;2022-10-31T04:15:07;9.36;83.22
68098;DHT22;54886;47.036;15.466;2022-10-31T04:17:36;9.36;82.97
68098;DHT22;54886;47.036;15.466;2022-10-31T04:20:03;9.36;83.05
68098;DHT22;54886;47.036;15.466;2022-10-31T04:22:29;9.31;83.23
68098;DHT22;54886;47.036;15.466;2022-10-31T04:24:54;9.27;83.09
68098;DHT22;54886;47.036;15.466;2022-10-31T04:27:19;9.24;82.81
68098;DHT22;54886;47.036;15.466;2022-10-31T04:29:45;9.27;82.94
68098;DHT22;54886;47.036;15.466;2022-10-31T04:32:10;9.24;82.62
68098;DHT22;54886;47.036;15.466;2022-10-31T04:34:36;9.23;82.70
68098;DHT22;54886;47.036;15.466;2022-10-31T04:37:01;9.17;82.71
68098;DHT22;54886;47.036;15.466;2022-10-31T04:39:27;9.14;82.63
68098;DHT22;54886;47.036;15.466;2022-10-31T04:41:52;9.15;82.78
68098;DHT22;54886;47.036;15.466;2022-10-31T04:44:18;9.13;82.84
68098;DHT22;54886;47.036;15.466;2022-10-31T04:46:43;9.11;82.57
68098;DHT22;54886;47.036;15.466;2022-10-31T04:49:08;9.08;82.63
68098;DHT22;54886;47.036;15.466;2022-10-31T04:51:34;9.04;82.67
68098;DHT22;54886;47.036;15.466;2022-10-31T04:53:59;9.07;82.68
68098;DHT22;54886;47.036;15.466;2022-10-31T04:56:25;9.03;82.40
68098;DHT22;54886;47.036;15.466;2022-10-31T04:58:51;9.01;82.79
68098;DHT22;54886;47.036;15.466;2022-10-31T05:01:16;8.99;82.56
68098;DHT22;54886;47.036;15.466;2022-10-31T05:03:41;8.99;82.46
68098;DHT22;54886;47.036;15.466;2022-10-31T05:06:07;8.96;82.59
68098;DHT22;54886;47.036;15.466;2022-10-31T05:08:32;8.90;82.55
68098;DHT22;54886;47.036;15.466;2022-10-31T05:11:01;8.88;82.75
68098;DHT22;54886;47.036;15.466;2022-10-31T05:13:28;8.81;83.24
68098;DHT22;54886;47.036;15.466;2022-10-31T05:15:53;8.80;82.80
68098;DHT22;54886;47.036;15.466;2022-10-31T05:18:18;8.81;82.81
68098;DHT22;54886;47.036;15.466;2022-10-31T05:20:44;8.76;82.60
68098;DHT22;54886;47.036;15.466;2022-10-31T05:23:09;8.77;82.48
68098;DHT22;54886;47.036;15.466;2022-10-31T05:25:35;8.77;82.52
68098;DHT22;54886;47.036;15.466;2022-10-31T05:28:00;8.76;82.75
68098;DHT22;54886;47.036;15.466;2022-10-31T05:30:28;8.75;82.35
68098;DHT22;54886;47.036;15.466;2022-10-31T05:32:54;8.72;82.78
68098;DHT22;54886;47.036;15.466;2022-10-31T05:35:25;8.72;82.58
68098;DHT22;54886;47.036;15.466;2022-10-31T05:37:51;8.68;82.70
68098;DHT22;54886;47.036;15.466;2022-10-31T05:40:18;8.66;82.48
68098;DHT22;54886;47.036;15.466;2022-10-31T05:42:44;8.66;82.58
68098;DHT22;54886;47.036;15.466;2022-10-31T05:45:12;8.65;82.49
68098;DHT22;54886;47.036;15.466;2022-10-31T05:47:38;8.62;82.46
68098;DHT22;54886;47.036;15.466;2022-10-31T05:50:04;8.63;82.47
68098;DHT22;54886;47.036;15.466;2022-10-31T05:52:30;8.58;82.55
68098;DHT22;54886;47.036;15.466;2022-10-31T05:54:55;8.59;82.29
68098;DHT22;54886;47.036;15.466;2022-10-31T05:57:21;8.60;82.51
68098;DHT22;54886;47.036;15.466;2022-10-31T05:59:46;8.60;82.26
68098;DHT22;54886;47.036;15.466;2022-10-31T06:02:12;8.62;82.50
68098;DHT22;54886;47.036;15.466;2022-10-31T06:04:37;8.60;82.47
68098;DHT22;54886;47.036;15.466;2022-10-31T06:07:02;8.62;82.55
68098;DHT22;54886;47.036;15.466;2022-10-31T06:09:28;8.60;82.56
68098;DHT22;54886;47.036;15.466;2022-10-31T06:11:53;8.60;83.05
68098;DHT22;54886;47.036;15.466;2022-10-31T06:14:19;8.58;83.39
68098;DHT22;54886;47.036;15.466;2022-10-31T06:16:44;8.56;83.13
68098;DHT22;54886;47.036;15.466;2022-10-31T06:19:09;8.59;82.68
68098;DHT22;54886;47.036;15.466;2022-10-31T06:21:35;8.56;83.44
68098;DHT22;54886;47.036;15.466;2022-10-31T06:24:00;8.58;83.30
68098;DHT22;54886;47.036;15.466;2022-10-31T06:26:26;8.59;83.13
68098;DHT22;54886;47.036;15.466;2022-10-31T06:28:51;8.62;83.50
68098;DHT22;54886;47.036;15.466;2022-10-31T06:31:17;8.62;83.42
68098;DHT22;54886;47.036;15.466;2022-10-31T06:33:42;8.63;84.35
68098;DHT22;54886;47.036;15.466;2022-10-31T06:36:08;8.66;83.97
68098;DHT22;54886;47.036;15.466;2022-10-31T06:38:34;8.65;83.85
68098;DHT22;54886;47.036;15.466;2022-10-31T06:41:05;8.68;84.18
68098;DHT22;54886;47.036;15.466;2022-10-31T06:43:31;8.70;83.00
68098;DHT22;54886;47.036;15.466;2022-10-31T06:45:57;8.75;83.59
68098;DHT22;54886;47.036;15.466;2022-10-31T06:48:26;8.77;85.28
68098;DHT22;54886;47.036;15.466;2022-10-31T06:50:51;8.80;85.32
68098;DHT22;54886;47.036;15.466;2022-10-31T06:53:17;8.81;85.28
68098;DHT22;54886;47.036;15.466;2022-10-31T06:55:42;8.81;85.88
68098;DHT22;54886;47.036;15.466;2022-10-31T06:58:10;8.86;86.14
68098;DHT22;54886;47.036;15.466;2022-10-31T07:00:35;8.87;86.51
68098;DHT22;54886;47.036;15.466;2022-10-31T07:03:06;8.93;87.26
68098;DHT22;54886;47.036;15.466;2022-10-31T07:05:32;8.97;87.32
68098;DHT22;54886;47.036;15.466;2022-10-31T07:08:03;9.00;87.87
68098;DHT22;54886;47.036;15.466;2022-10-31T07:10:32;9.01;87.43
68098;DHT22;54886;47.036;15.466;2022-10-31T07:13:00;9.07;87.92
68098;DHT22;54886;47.036;15.466;2022-10-31T07:15:27;9.11;88.10
68098;DHT22;54886;47.036;15.466;2022-10-31T07:17:53;9.18;88.62
68098;DHT22;54886;47.036;15.466;2022-10-31T07:20:19;9.21;87.37
68098;DHT22;54886;47.036;15.466;2022-10-31T07:22:44;9.24;87.52
68098;DHT22;54886;47.036;15.466;2022-10-31T07:25:10;9.30;87.99
68098;DHT22;54886;47.036;15.466;2022-10-31T07:27:41;9.35;87.92
68098;DHT22;54886;47.036;15.466;2022-10-31T07:30:08;9.38;87.76
68098;DHT22;54886;47.036;15.466;2022-10-31T07:32:41;9.45;88.67
68098;DHT22;54886;47.036;15.466;2022-10-31T07:35:08;9.49;88.52
68098;DHT22;54886;47.036;15.466;2022-10-31T07:37:34;9.52;87.64
68098;DHT22;54886;47.036;15.466;2022-10-31T07:39:59;9.58;88.02
68098;DHT22;54886;47.036;15.466;2022-10-31T07:42:25;9.65;88.01
68098;DHT22;54886;47.036;15.466;2022-10-31T07:44:50;9.68;88.12
68098;DHT22;54886;47.036;15.466;2022-10-31T07:47:16;9.73;88.38
68098;DHT22;54886;47.036;15.466;2022-10-31T07:49:41;9.79;88.10
68098;DHT22;54886;47.036;15.466;2022-10-31T07:52:06;9.80;87.06
68098;DHT22;54886;47.036;15.466;2022-10-31T07:54:32;9.86;88.60
68098;DHT22;54886;47.036;15.466;2022-10-31T07:56:57;9.93;88.97
68098;DHT22;54886;47.036;15.466;2022-10-31T07:59:23;10.06;89.61
68098;DHT22;54886;47.036;15.466;2022-10-31T08:01:48;10.10;89.23
68098;DHT22;54886;47.036;15.466;2022-10-31T08:04:13;10.15;89.32
68098;DHT22;54886;47.036;15.466;2022-10-31T08:06:39;10.24;89.64
68098;DHT22;54886;47.036;15.466;2022-10-31T08:09:04;10.30;89.64
68098;DHT22;54886;47.036;15.466;2022-10-31T08:11:29;10.32;89.20
68098;DHT22;54886;47.036;15.466;2022-10-31T08:13:55;10.41;88.46
68098;DHT22;54886;47.036;15.466;2022-10-31T08:16:20;10.48;89.25
68098;DHT22;54886;47.036;15.466;2022-10-31T08:18:46;10.52;89.24
68098;DHT22;54886;47.036;15.466;2022-10-31T08:21:12;10.63;90.05
68098;DHT22;54886;47.036;15.466;2022-10-31T08:23:37;10.70;89.93
68098;DHT22;54886;47.036;15.466;2022-10-31T08:26:03;10.75;89.46
68098;DHT22;54886;47.036;15.466;2022-10-31T08:28:28;10.83;89.55
68098;DHT22;54886;47.036;15.466;2022-10-31T08:30:54;10.90;89.68
68098;DHT22;54886;47.036;15.466;2022-10-31T08:33:19;11.00;90.04
68098;DHT22;54886;47.036;15.466;2022-10-31T08:35:45;11.08;89.90
68098;DHT22;54886;47.036;15.466;2022-10-31T08:38:12;11.15;89.71
68098;DHT22;54886;47.036;15.466;2022-10-31T08:40:38;11.30;90.05
68098;DHT22;54886;47.036;15.466;2022-10-31T08:43:06;11.36;89.84
68098;DHT22;54886;47.036;15.466;2022-10-31T08:45:32;11.46;89.79
68098;DHT22;54886;47.036;15.466;2022-10-31T08:48:03;11.51;89.57
68098;DHT22;54886;47.036;15.466;2022-10-31T08:50:30;11.59;88.91
68098;DHT22;54886;47.036;15.466;2022-10-31T08:53:01;11.68;88.58
68098;DHT22;54886;47.036;15.466;2022-10-31T08:55:26;11.75;88.36
68098;DHT22;54886;47.036;15.466;2022-10-31T08:57:56;11.82;88.49
68098;DHT22;54886;47.036;15.466;2022-10-31T09:00:22;11.93;88.09
68098;DHT22;54886;47.036;15.466;2022-10-31T09:02:47;11.97;88.17
68098;DHT22;54886;47.036;15.466;2022-10-31T09:05:13;12.04;87.93
68098;DHT22;54886;47.036;15.466;2022-10-31T09:07:39;12.13;88.35
68098;DHT22;54886;47.036;15.466;2022-10-31T09:10:04;12.20;88.10
68098;DHT22;54886;47.036;15.466;2022-10-31T09:12:30;12.27;88.36
68098;DHT22;54886;47.036;15.466;2022-10-31T09:14:55;12.34;88.68
68098;DHT22;54886;47.036;15.466;2022-10-31T09:17:21;12.44;88.40
68098;DHT22;54886;47.036;15.466;2022-10-31T09:19:46;12.48;88.33
68098;DHT22;54886;47.036;15.466;2022-10-31T09:22:11;12.51;87.73
68098;DHT22;54886;47.036;15.466;2022-10-31T09:24:37;12.59;87.59
68098;DHT22;54886;47.036;15.466;2022-10-31T09:27:02;12.65;87.94
68098;DHT22;54886;47.036;15.466;2022-10-31T09:29:28;12.72;88.08
68098;DHT22;54886;47.036;15.466;2022-10-31T09:31:56;12.82;87.87
68098;DHT22;54886;47.036;15.466;2022-10-31T09:34:21;12.87;87.82
68098;DHT22;54886;47.036;15.466;2022-10-31T09:36:47;13.06;87.82
68098;DHT22;54886;47.036;15.466;2022-10-31T09:39:15;13.08;87.10
68098;DHT22;54886;47.036;15.466;2022-10-31T09:44:26;13.21;87.31
68098;DHT22;54886;47.036;15.466;2022-10-31T09:47:00;13.23;86.38
68098;DHT22;54886;47.036;15.466;2022-10-31T09:50:40;13.31;86.42
68098;DHT22;54886;47.036;15.466;2022-10-31T09:52:36;13.44;86.18
68098;DHT22;54886;47.036;15.466;2022-10-31T09:55:13;13.48;86.76
68098;DHT22;54886;47.036;15.466;2022-10-31T09:57:41;13.55;86.47
68098;DHT22;54886;47.036;15.466;2022-10-31T10:00:16;13.63;86.16
68098;DHT22;54886;47.036;15.466;2022-10-31T10:05:31;13.70;85.27
68098;DHT22;54886;47.036;15.466;2022-10-31T10:08:09;13.83;85.78
68098;DHT22;54886;47.036;15.466;2022-10-31T10:13:42;13.93;85.62
68098;DHT22;54886;47.036;15.466;2022-10-31T10:26:43;14.28;84.09
68098;DHT22;54886;47.036;15.466;2022-10-31T10:29:40;14.38;83.78
68098;DHT22;54886;47.036;15.466;2022-10-31T10:32:17;14.49;83.25
68098;DHT22;54886;47.036;15.466;2022-10-31T10:34:49;14.52;83.23
68098;DHT22;54886;47.036;15.466;2022-10-31T10:39:55;14.73;83.18
68098;DHT22;54886;47.036;15.466;2022-10-31T10:42:22;14.78;82.95
68098;DHT22;54886;47.036;15.466;2022-10-31T10:45:19;14.87;83.22
68098;DHT22;54886;47.036;15.466;2022-10-31T10:48:14;14.93;82.00
68098;DHT22;54886;47.036;15.466;2022-10-31T10:50:46;14.93;82.12
68098;DHT22;54886;47.036;15.466;2022-10-31T10:59:03;15.03;80.45
68098;DHT22;54886;47.036;15.466;2022-10-31T11:01:28;15.10;80.12
68098;DHT22;54886;47.036;15.466;2022-10-31T11:03:54;15.10;80.53
68098;DHT22;54886;47.036;15.466;2022-10-31T11:06:23;15.17;80.20
68098;DHT22;54886;47.036;15.466;2022-10-31T11:08:51;15.23;80.28
68098;DHT22;54886;47.036;15.466;2022-10-31T11:13:45;15.34;79.66
68098;DHT22;54886;47.036;15.466;2022-10-31T11:18:52;15.42;79.22
68098;DHT22;54886;47.036;15.466;2022-10-31T11:21:27;15.48;78.83
68098;DHT22;54886;47.036;15.466;2022-10-31T11:26:34;15.52;78.54
68098;DHT22;54886;47.036;15.466;2022-10-31T11:29:00;15.61;78.34
68098;DHT22;54886;47.036;15.466;2022-10-31T11:31:28;15.59;78.46
68098;DHT22;54886;47.036;15.466;2022-10-31T11:33:59;15.63;78.70
68098;DHT22;54886;47.036;15.466;2022-10-31T11:36:29;15.69;78.34
68098;DHT22;54886;47.036;15.466;2022-10-31T11:38:55;15.79;78.34
68098;DHT22;54886;47.036;15.466;2022-10-31T11:41:27;15.95;77.32
68098;DHT22;54886;47.036;15.466;2022-10-31T11:43:57;15.92;77.24
68098;DHT22;54886;47.036;15.466;2022-10-31T11:46:38;16.00;78.15
68098;DHT22;54886;47.036;15.466;2022-10-31T11:49:11;16.04;76.80
68098;DHT22;54886;47.036;15.466;2022-10-31T11:51:39;16.00;77.12
68098;DHT22;54886;47.036;15.466;2022-10-31T11:54:05;16.10;76.55
68098;DHT22;54886;47.036;15.466;2022-10-31T11:56:39;16.09;76.80
68098;DHT22;54886;47.036;15.466;2022-10-31T11:59:14;16.09;76.92
68098;DHT22;54886;47.036;15.466;2022-10-31T12:01:46;16.07;76.51
68098;DHT22;54886;47.036;15.466;2022-10-31T12:04:13;16.10;76.26
68098;DHT22;54886;47.036;15.466;2022-10-31T12:06:40;16.12;76.05
68098;DHT22;54886;47.036;15.466;2022-10-31T12:09:28;16.20;76.41
68098;DHT22;54886;47.036;15.466;2022-10-31T12:17:35;16.40;75.57
68098;DHT22;54886;47.036;15.466;2022-10-31T12:30:24;16.48;75.79
68098;DHT22;54886;47.036;15.466;2022-10-31T12:35:40;16.50;75.51
68098;DHT22;54886;47.036;15.466;2022-10-31T12:43:48;16.59;74.67
68098;DHT22;54886;47.036;15.466;2022-10-31T12:47:37;16.64;73.58
68098;DHT22;54886;47.036;15.466;2022-10-31T12:50:11;16.67;74.36
68098;DHT22;54886;47.036;15.466;2022-10-31T12:58:36;16.69;73.02
68098;DHT22;54886;47.036;15.466;2022-10-31T13:03:52;16.73;73.24
68098;DHT22;54886;47.036;15.466;2022-10-31T13:06:27;16.72;73.78
68098;DHT22;54886;47.036;15.466;2022-10-31T13:08:57;16.75;72.43
68098;DHT22;54886;47.036;15.466;2022-10-31T13:11:32;16.76;72.79
68098;DHT22;54886;47.036;15.466;2022-10-31T13:14:56;16.79;72.79
68098;DHT22;54886;47.036;15.466;2022-10-31T13:17:02;16.79;72.97
68098;DHT22;54886;47.036;15.466;2022-10-31T13:19:32;16.78;72.76
68098;DHT22;54886;47.036;15.466;2022-10-31T13:22:12;16.82;73.01
68098;DHT22;54886;47.036;15.466;2022-10-31T13:27:45;16.90;72.42
68098;DHT22;54886;47.036;15.466;2022-10-31T13:32:52;16.97;72.25
68098;DHT22;54886;47.036;15.466;2022-10-31T13:35:41;16.96;72.47
68098;DHT22;54886;47.036;15.466;2022-10-31T13:44:18;16.92;73.89
68098;DHT22;54886;47.036;15.466;2022-10-31T13:46:45;16.90;73.77
68098;DHT22;54886;47.036;15.466;2022-10-31T13:54:36;16.95;73.03
68098;DHT22;54886;47.036;15.466;2022-10-31T13:57:28;16.93;73.35
68098;DHT22;54886;47.036;15.466;2022-10-31T13:59:54;16.93;73.66
68098;DHT22;54886;47.036;15.466;2022-10-31T14:02:29;16.93;73.50
68098;DHT22;54886;47.036;15.466;2022-10-31T14:05:01;16.93;73.84
68098;DHT22;54886;47.036;15.466;2022-10-31T14:07:31;16.89;73.92
68098;DHT22;54886;47.036;15.466;2022-10-31T14:10:04;16.87;73.49
68098;DHT22;54886;47.036;15.466;2022-10-31T14:12:43;16.87;73.83
68098;DHT22;54886;47.036;15.466;2022-10-31T14:18:03;16.86;73.70
68098;DHT22;54886;47.036;15.466;2022-10-31T14:20:37;16.80;74.09
68098;DHT22;54886;47.036;15.466;2022-10-31T14:28:43;16.73;74.42
68098;DHT22;54886;47.036;15.466;2022-10-31T14:34:01;16.73;74.54
68098;DHT22;54886;47.036;15.466;2022-10-31T14:36:38;16.73;74.18
68098;DHT22;54886;47.036;15.466;2022-10-31T14:39:18;16.73;73.72
68098;DHT22;54886;47.036;15.466;2022-10-31T14:53:12;16.58;75.09
68098;DHT22;54886;47.036;15.466;2022-10-31T14:55:44;16.54;75.42
68098;DHT22;54886;47.036;15.466;2022-10-31T14:58:17;16.51;75.21
68098;DHT22;54886;47.036;15.466;2022-10-31T15:00:56;16.47;75.41
68098;DHT22;54886;47.036;15.466;2022-10-31T15:05:51;16.38;75.06
68098;DHT22;54886;47.036;15.466;2022-10-31T15:08:39;16.37;75.65
68098;DHT22;54886;47.036;15.466;2022-10-31T15:11:18;16.32;75.63
68098;DHT22;54886;47.036;15.466;2022-10-31T15:16:17;16.25;75.46
68098;DHT22;54886;47.036;15.466;2022-10-31T15:18:52;16.23;75.44
68098;DHT22;54886;47.036;15.466;2022-10-31T15:21:20;16.18;76.17
68098;DHT22;54886;47.036;15.466;2022-10-31T15:23:46;16.14;76.07
68098;DHT22;54886;47.036;15.466;2022-10-31T15:26:18;16.12;76.46
68098;DHT22;54886;47.036;15.466;2022-10-31T15:28:44;16.07;76.61
68098;DHT22;54886;47.036;15.466;2022-10-31T15:31:16;16.04;76.68
68098;DHT22;54886;47.036;15.466;2022-10-31T15:33:42;15.99;76.64
68098;DHT22;54886;47.036;15.466;2022-10-31T15:36:18;15.95;76.63
68098;DHT22;54886;47.036;15.466;2022-10-31T15:38:43;15.92;76.79
68098;DHT22;54886;47.036;15.466;2022-10-31T15:41:38;15.89;77.07
68098;DHT22;54886;47.036;15.466;2022-10-31T15:44:19;15.83;76.77
68098;DHT22;54886;47.036;15.466;2022-10-31T15:46:58;15.79;77.25
68098;DHT22;54886;47.036;15.466;2022-10-31T15:52:45;15.70;77.11
68098;DHT22;54886;47.036;15.466;2022-10-31T15:54:53;15.66;76.52
68098;DHT22;54886;47.036;15.466;2022-10-31T15:57:21;15.62;77.17
68098;DHT22;54886;47.036;15.466;2022-10-31T15:59:48;15.58;77.12
68098;DHT22;54886;47.036;15.466;2022-10-31T16:02:18;15.55;77.24
68098;DHT22;54886;47.036;15.466;2022-10-31T16:04:57;15.50;77.28
68098;DHT22;54886;47.036;15.466;2022-10-31T16:07:23;15.41;77.38
68098;DHT22;54886;47.036;15.466;2022-10-31T16:09:57;15.40;77.30
68098;DHT22;54886;47.036;15.466;2022-10-31T16:12:31;15.37;77.38
68098;DHT22;54886;47.036;15.466;2022-10-31T16:14:57;15.32;77.52
68098;DHT22;54886;47.036;15.466;2022-10-31T16:17:24;15.24;77.57
68098;DHT22;54886;47.036;15.466;2022-10-31T16:19:55;15.20;77.63
68098;DHT22;54886;47.036;15.466;2022-10-31T16:22:25;15.19;77.74
68098;DHT22;54886;47.036;15.466;2022-10-31T16:24:54;15.14;77.94
68098;DHT22;54886;47.036;15.466;2022-10-31T16:27:27;15.06;77.78
68098;DHT22;54886;47.036;15.466;2022-10-31T16:29:55;15.04;77.86
68098;DHT22;54886;47.036;15.466;2022-10-31T16:35:35;14.95;77.86
68098;DHT22;54886;47.036;15.466;2022-10-31T16:38:02;14.90;77.79
68098;DHT22;54886;47.036;15.466;2022-10-31T16:40:28;14.85;77.83
68098;DHT22;54886;47.036;15.466;2022-10-31T16:42:56;14.79;77.89
68098;DHT22;54886;47.036;15.466;2022-10-31T16:45:26;14.73;78.06
68098;DHT22;54886;47.036;15.466;2022-10-31T16:47:52;14.71;78.14
68098;DHT22;54886;47.036;15.466;2022-10-31T16:50:23;14.65;78.01
68098;DHT22;54886;47.036;15.466;2022-10-31T16:52:49;14.57;78.06
68098;DHT22;54886;47.036;15.466;2022-10-31T16:55:16;14.54;78.03
68098;DHT22;54886;47.036;15.466;2022-10-31T16:57:50;14.45;78.11
68098;DHT22;54886;47.036;15.466;2022-10-31T17:00:22;14.41;78.16
68098;DHT22;54886;47.036;15.466;2022-10-31T17:02:49;14.37;78.35
68098;DHT22;54886;47.036;15.466;2022-10-31T17:05:17;14.34;78.49
68098;DHT22;54886;47.036;15.466;2022-10-31T17:07:42;14.24;78.90
68098;DHT22;54886;47.036;15.466;2022-10-31T17:10:26;14.21;78.45
68098;DHT22;54886;47.036;15.466;2022-10-31T17:12:55;14.20;78.53
68098;DHT22;54886;47.036;15.466;2022-10-31T17:15:26;14.17;78.38
68098;DHT22;54886;47.036;15.466;2022-10-31T17:17:54;14.13;78.60
68098;DHT22;54886;47.036;15.466;2022-10-31T17:20:26;14.07;79.20
68098;DHT22;54886;47.036;15.466;2022-10-31T17:23:01;14.04;78.77
68098;DHT22;54886;47.036;15.466;2022-10-31T17:25:29;13.99;78.99
68098;DHT22;54886;47.036;15.466;2022-10-31T17:27:56;13.96;78.89
68098;DHT22;54886;47.036;15.466;2022-10-31T17:30:22;13.95;78.96
68098;DHT22;54886;47.036;15.466;2022-10-31T17:32:49;13.90;79.07
68098;DHT22;54886;47.036;15.466;2022-10-31T17:35:16;13.87;79.04
68098;DHT22;54886;47.036;15.466;2022-10-31T17:37:42;13.82;79.05
68098;DHT22;54886;47.036;15.466;2022-10-31T17:40:10;13.76;79.21
68098;DHT22;54886;47.036;15.466;2022-10-31T17:42:35;13.75;79.05
68098;DHT22;54886;47.036;15.466;2022-10-31T17:45:01;13.72;79.05
68098;DHT22;54886;47.036;15.466;2022-10-31T17:47:26;13.68;79.20
68098;DHT22;54886;47.036;15.466;2022-10-31T17:49:52;13.66;79.54
68098;DHT22;54886;47.036;15.466;2022-10-31T17:52:18;13.62;79.13
68098;DHT22;54886;47.036;15.466;2022-10-31T17:54:43;13.58;79.22
68098;DHT22;54886;47.036;15.466;2022-10-31T17:57:09;13.54;79.21
68098;DHT22;54886;47.036;15.466;2022-10-31T17:59:35;13.49;79.25